createdAt,value
2023-03-04T00:01:32.375Z,16.10
2023-03-04T00:04:05.240Z,19.00
2023-03-04T00:06:38.030Z,18.33
2023-03-04T00:09:10.744Z,16.27
2023-03-04T00:11:43.493Z,17.40
2023-03-04T00:14:16.297Z,15.40
2023-03-04T00:16:50.339Z,16.53
2023-03-04T00:19:23.050Z,18.27
2023-03-04T00:21:56.946Z,18.50
2023-03-04T00:24:32.342Z,12.83
2023-03-04T00:27:05.314Z,14.33
2023-03-04T00:29:38.191Z,9.73
2023-03-04T00:32:12.765Z,15.17
2023-03-04T00:34:45.741Z,16.43
2023-03-04T00:37:21.209Z,14.27
2023-03-04T00:39:54.438Z,15.93
2023-03-04T00:42:29.253Z,16.13
2023-03-04T00:45:02.214Z,15.63
2023-03-04T00:47:36.318Z,13.27
2023-03-04T00:50:13.921Z,14.10
2023-03-04T00:52:46.748Z,11.30
2023-03-04T00:55:19.532Z,14.97
2023-03-04T00:57:52.258Z,12.50
2023-03-04T01:00:26.973Z,10.03
2023-03-04T01:03:01.128Z,12.93
2023-03-04T01:05:35.838Z,10.20
2023-03-04T01:08:13.703Z,14.03
2023-03-04T01:10:46.403Z,9.27
2023-03-04T01:13:19.196Z,9.93
2023-03-04T01:15:51.969Z,8.70
2023-03-04T01:18:25.992Z,8.03
2023-03-04T01:20:58.719Z,10.17
2023-03-04T01:23:31.493Z,10.93
2023-03-04T01:26:04.297Z,10.73
2023-03-04T01:28:36.927Z,7.13
2023-03-04T01:31:09.888Z,9.37
2023-03-04T01:33:44.153Z,5.90
2023-03-04T01:36:17.082Z,8.17
2023-03-04T01:38:49.793Z,7.83
2023-03-04T01:41:24.460Z,8.90
2023-03-04T01:43:57.452Z,8.00
2023-03-04T01:46:30.719Z,7.00
2023-03-04T01:49:04.883Z,4.17
2023-03-04T01:51:40.358Z,8.87
2023-03-04T01:54:13.112Z,7.03
2023-03-04T01:56:46.382Z,7.40
2023-03-04T01:59:20.537Z,8.43
2023-03-04T02:01:54.780Z,7.00
2023-03-04T02:04:30.178Z,6.77
2023-03-04T02:07:03.710Z,8.50
2023-03-04T02:09:37.024Z,7.97
2023-03-04T02:12:09.861Z,7.87
2023-03-04T02:14:47.768Z,6.30
2023-03-04T02:17:25.235Z,6.83
2023-03-04T02:20:03.563Z,7.50
2023-03-04T02:22:38.453Z,7.90
2023-03-04T02:25:14.331Z,5.37
2023-03-04T02:27:48.589Z,6.67
2023-03-04T02:30:22.298Z,7.77
2023-03-04T02:32:55.073Z,6.90
2023-03-04T02:35:27.872Z,6.33
2023-03-04T02:38:00.654Z,5.37
2023-03-04T02:40:35.093Z,6.90
2023-03-04T02:43:12.334Z,6.67
2023-03-04T02:45:47.060Z,6.70
2023-03-04T02:48:22.210Z,6.50
2023-03-04T02:50:55.031Z,6.80
2023-03-04T02:53:28.732Z,5.63
2023-03-04T02:56:01.563Z,5.87
2023-03-04T02:58:35.841Z,6.40
2023-03-04T03:01:08.591Z,5.63
2023-03-04T03:03:43.316Z,6.47
2023-03-04T03:06:18.544Z,6.83
2023-03-04T03:08:51.361Z,4.23
2023-03-04T03:11:25.167Z,6.50
2023-03-04T03:14:00.696Z,6.60
2023-03-04T03:16:33.473Z,5.47
2023-03-04T03:19:06.278Z,5.27
2023-03-04T03:21:39.115Z,6.63
2023-03-04T03:24:11.774Z,7.40
2023-03-04T03:26:44.453Z,7.00
2023-03-04T03:29:18.520Z,5.73
2023-03-04T03:31:51.333Z,6.93
2023-03-04T03:34:24.142Z,5.20
2023-03-04T03:36:57.110Z,5.67
2023-03-04T03:39:31.909Z,5.47
2023-03-04T03:42:07.355Z,4.73
2023-03-04T03:44:41.416Z,5.87
2023-03-04T03:47:14.142Z,5.63
2023-03-04T03:49:46.946Z,4.97
2023-03-04T03:52:19.678Z,5.83
2023-03-04T03:54:55.106Z,5.13
2023-03-04T03:57:28.035Z,5.43
2023-03-04T04:00:03.765Z,5.80
2023-03-04T04:02:36.505Z,3.80
2023-03-04T04:05:09.874Z,5.90
2023-03-04T04:07:42.706Z,3.87
2023-03-04T04:10:15.545Z,5.03
2023-03-04T04:12:50.667Z,4.07
2023-03-04T04:15:24.831Z,5.30
2023-03-04T04:17:57.581Z,4.10
2023-03-04T04:20:30.316Z,5.03
2023-03-04T04:23:03.879Z,3.97
2023-03-04T04:25:36.587Z,4.17
2023-03-04T04:28:09.304Z,4.77
2023-03-04T04:30:43.545Z,5.57
2023-03-04T04:33:16.477Z,5.13
2023-03-04T04:35:49.191Z,5.50
2023-03-04T04:38:21.918Z,5.00
2023-03-04T04:40:54.884Z,4.97
2023-03-04T04:43:27.652Z,4.73
2023-03-04T04:46:01.769Z,4.77
2023-03-04T04:48:34.780Z,4.60
2023-03-04T04:51:10.366Z,4.10
2023-03-04T04:53:43.102Z,4.00
2023-03-04T04:56:16.771Z,2.83
2023-03-04T04:58:50.091Z,4.20
2023-03-04T05:01:24.998Z,4.43
2023-03-04T05:03:57.691Z,4.13
2023-03-04T05:06:30.598Z,4.10
2023-03-04T05:09:04.324Z,3.37
2023-03-04T05:11:37.129Z,3.87
2023-03-04T05:14:09.896Z,3.83
2023-03-04T05:16:44.123Z,3.70
2023-03-04T05:19:16.962Z,3.60
2023-03-04T05:21:49.673Z,3.30
2023-03-04T05:24:25.607Z,3.77
2023-03-04T05:27:05.800Z,2.87
2023-03-04T05:29:38.536Z,3.33
2023-03-04T05:32:12.668Z,3.43
2023-03-04T05:34:47.274Z,3.60
2023-03-04T05:37:19.978Z,3.50
2023-03-04T05:39:52.795Z,3.43
2023-03-04T05:42:25.593Z,3.87
2023-03-04T05:44:58.301Z,4.03
2023-03-04T05:47:34.958Z,3.17
2023-03-04T05:50:08.464Z,3.90
2023-03-04T05:52:44.453Z,3.27
2023-03-04T05:55:17.471Z,3.50
2023-03-04T05:57:50.234Z,3.20
2023-03-04T06:00:22.918Z,2.87
2023-03-04T06:02:57.239Z,4.13
2023-03-04T06:05:30.035Z,2.73
2023-03-04T06:08:02.709Z,3.00
2023-03-04T06:10:35.493Z,3.10
2023-03-04T06:13:08.437Z,3.60
2023-03-04T06:15:41.287Z,3.40
2023-03-04T06:18:15.470Z,3.60
2023-03-04T06:20:48.197Z,3.47
2023-03-04T06:23:20.920Z,3.70
2023-03-04T06:25:54.416Z,3.60
2023-03-04T06:28:27.540Z,2.93
2023-03-04T06:31:02.269Z,3.00
2023-03-04T06:33:36.547Z,3.20
2023-03-04T06:36:13.290Z,3.37
2023-03-04T06:38:46.088Z,3.23
2023-03-04T06:41:18.780Z,2.63
2023-03-04T06:43:56.732Z,3.30
2023-03-04T06:46:33.952Z,3.40
2023-03-04T06:49:10.664Z,3.50
2023-03-04T06:51:43.393Z,2.90
2023-03-04T06:54:16.200Z,2.27
2023-03-04T06:56:50.723Z,3.93
2023-03-04T06:59:23.396Z,2.80
2023-03-04T07:01:56.305Z,2.63
2023-03-04T07:04:30.395Z,2.63
2023-03-04T07:07:03.059Z,2.87
2023-03-04T07:09:35.817Z,3.10
2023-03-04T07:12:08.514Z,2.40
2023-03-04T07:14:41.445Z,2.10
2023-03-04T07:17:14.198Z,3.30
2023-03-04T07:19:48.349Z,2.10
2023-03-04T07:22:21.063Z,2.00
2023-03-04T07:24:53.986Z,2.77
2023-03-04T07:27:26.807Z,2.60
2023-03-04T07:29:59.611Z,2.77
2023-03-04T07:32:34.347Z,2.27
2023-03-04T07:35:09.846Z,2.90
2023-03-04T07:37:42.595Z,1.93
2023-03-04T07:40:15.379Z,2.60
2023-03-04T07:42:50.628Z,2.87
2023-03-04T07:45:24.107Z,2.50
2023-03-04T07:47:59.454Z,2.00
2023-03-04T07:50:33.567Z,2.27
2023-03-04T07:53:06.355Z,2.30
2023-03-04T07:55:41.799Z,1.90
2023-03-04T07:58:14.593Z,2.13
2023-03-04T08:00:47.348Z,2.40
2023-03-04T08:03:20.098Z,2.40
2023-03-04T08:05:54.462Z,2.63
2023-03-04T08:08:27.112Z,2.00
2023-03-04T08:11:06.162Z,2.20
2023-03-04T08:13:39.375Z,2.17
2023-03-04T08:16:15.709Z,2.10
2023-03-04T08:18:52.668Z,2.30
2023-03-04T08:21:27.767Z,2.13
2023-03-04T08:24:02.311Z,2.57
2023-03-04T08:26:41.263Z,3.00
2023-03-04T08:29:16.601Z,2.73
2023-03-04T08:31:49.637Z,2.23
2023-03-04T08:34:24.168Z,2.53
2023-03-04T08:36:58.368Z,2.20
2023-03-04T08:39:33.262Z,2.63
2023-03-04T08:42:06.098Z,2.50
2023-03-04T08:44:38.957Z,1.80
2023-03-04T08:47:12.310Z,2.13
2023-03-04T08:49:45.062Z,1.50
2023-03-04T08:52:19.163Z,2.33
2023-03-04T08:54:51.883Z,1.90
2023-03-04T08:57:24.686Z,2.87
2023-03-04T08:59:57.355Z,2.03
2023-03-04T09:02:30.055Z,1.80
2023-03-04T09:05:04.685Z,2.53
2023-03-04T09:07:38.864Z,1.60
2023-03-04T09:10:12.338Z,2.13
2023-03-04T09:12:46.485Z,2.43
2023-03-04T09:15:19.193Z,2.00
2023-03-04T09:17:51.961Z,2.73
2023-03-04T09:20:24.836Z,2.10
2023-03-04T09:23:00.984Z,1.87
2023-03-04T09:25:33.720Z,2.60
2023-03-04T09:28:06.844Z,1.57
2023-03-04T09:30:39.710Z,1.70
2023-03-04T09:33:12.714Z,2.77
2023-03-04T09:35:49.965Z,2.27
2023-03-04T09:38:24.880Z,2.67
2023-03-04T09:40:57.782Z,1.40
2023-03-04T09:43:32.192Z,1.53
2023-03-04T09:46:05.783Z,2.83
2023-03-04T09:48:41.215Z,1.90
2023-03-04T09:51:20.329Z,2.13
2023-03-04T09:54:02.730Z,2.40
2023-03-04T09:56:36.433Z,1.93
2023-03-04T09:59:14.908Z,2.40
2023-03-04T10:01:50.611Z,1.87
2023-03-04T10:04:30.418Z,2.13
2023-03-04T10:07:06.170Z,2.70
2023-03-04T10:09:47.143Z,2.37
2023-03-04T10:12:21.288Z,2.27
2023-03-04T10:14:57.219Z,2.50
2023-03-04T10:17:36.947Z,2.83
2023-03-04T10:20:17.307Z,2.47
2023-03-04T10:22:52.176Z,2.50
2023-03-04T10:25:27.891Z,2.50
2023-03-04T10:28:03.607Z,1.20
2023-03-04T10:30:42.535Z,2.47
2023-03-04T10:33:16.220Z,2.43
2023-03-04T10:35:49.861Z,2.67
2023-03-04T10:38:23.752Z,2.30
2023-03-04T10:40:58.850Z,2.50
2023-03-04T10:43:31.577Z,2.43
2023-03-04T10:46:04.301Z,2.90
2023-03-04T10:48:39.033Z,3.07
2023-03-04T10:51:13.795Z,2.50
2023-03-04T10:53:47.240Z,2.57
2023-03-04T10:56:35.201Z,2.17
2023-03-04T10:59:26.520Z,1.73
2023-03-04T11:01:59.711Z,2.67
2023-03-04T11:04:37.432Z,2.37
2023-03-04T11:07:10.784Z,2.07
2023-03-04T11:09:45.296Z,3.10
2023-03-04T11:12:22.333Z,1.83
2023-03-04T11:14:55.015Z,3.17
2023-03-04T11:17:28.911Z,2.60
2023-03-04T11:20:06.710Z,2.60
2023-03-04T11:22:40.891Z,2.40
2023-03-04T11:25:22.248Z,3.17
2023-03-04T11:27:57.312Z,3.20
2023-03-04T11:30:34.949Z,4.00
2023-03-04T11:33:14.613Z,2.80
2023-03-04T11:35:52.314Z,2.10
2023-03-04T11:38:28.062Z,2.47
2023-03-04T11:41:04.776Z,3.40
2023-03-04T11:43:40.098Z,3.33
2023-03-04T11:46:45.685Z,2.77
2023-03-04T11:49:32.127Z,3.73
2023-03-04T11:52:10.432Z,2.93
2023-03-04T11:54:47.684Z,3.87
2023-03-04T11:57:26.748Z,3.20
2023-03-04T12:00:17.118Z,3.70
2023-03-04T12:02:55.519Z,3.30
2023-03-04T12:05:30.706Z,4.70
2023-03-04T12:08:21.980Z,3.43
2023-03-04T12:11:00.171Z,3.70
2023-03-04T12:14:02.710Z,3.00
2023-03-04T12:16:49.792Z,3.90
2023-03-04T12:19:27.793Z,3.27
2023-03-04T12:22:13.641Z,3.87
2023-03-04T12:24:57.283Z,3.50
2023-03-04T12:27:33.564Z,2.80
2023-03-04T12:30:07.682Z,2.23
2023-03-04T12:32:47.280Z,2.10
2023-03-04T12:35:43.161Z,3.37
2023-03-04T12:38:33.618Z,2.30
2023-03-04T12:41:14.461Z,3.07
2023-03-04T12:43:51.748Z,1.80
2023-03-04T12:46:38.660Z,2.67
2023-03-04T12:49:24.444Z,2.73
2023-03-04T12:52:00.775Z,2.43
2023-03-04T12:54:36.015Z,1.90
2023-03-04T12:57:14.525Z,2.30
2023-03-04T12:59:53.243Z,2.67
2023-03-04T13:02:37.850Z,2.70
2023-03-04T13:05:24.395Z,2.63
2023-03-04T13:08:03.340Z,2.43
2023-03-04T13:10:36.375Z,1.87
2023-03-04T13:13:26.819Z,2.67
2023-03-04T13:16:02.964Z,1.77
2023-03-04T13:18:36.500Z,3.13
2023-03-04T13:21:22.812Z,2.67
2023-03-04T13:23:55.790Z,2.73
2023-03-04T13:26:32.750Z,2.90
2023-03-04T13:29:31.716Z,3.27
2023-03-04T13:32:05.431Z,2.93
2023-03-04T13:34:46.079Z,3.10
2023-03-04T13:37:39.314Z,2.53
2023-03-04T13:40:33.193Z,2.70
2023-03-04T13:43:24.785Z,2.27
2023-03-04T13:45:57.519Z,3.13
2023-03-04T13:48:32.420Z,2.30
2023-03-04T13:51:05.395Z,2.43
2023-03-04T13:53:45.472Z,2.60
2023-03-04T13:56:24.770Z,2.37
2023-03-04T13:59:15.428Z,1.93
2023-03-04T14:01:55.516Z,3.07
2023-03-04T14:04:29.748Z,3.23
2023-03-04T14:07:03.932Z,3.23
2023-03-04T14:09:39.341Z,2.10
2023-03-04T14:12:16.586Z,2.40
2023-03-04T14:14:51.716Z,4.37
2023-03-04T14:17:26.147Z,2.53
2023-03-04T14:19:59.111Z,2.60
2023-03-04T14:22:33.355Z,3.40
2023-03-04T14:25:07.368Z,3.33
2023-03-04T14:27:41.961Z,4.53
2023-03-04T14:30:39.097Z,2.37
2023-03-04T14:33:15.984Z,2.57
2023-03-04T14:35:49.656Z,2.50
2023-03-04T14:38:26.844Z,3.77
2023-03-04T14:41:01.104Z,3.90
2023-03-04T14:43:37.059Z,3.20
2023-03-04T14:46:12.046Z,3.10
2023-03-04T14:48:46.984Z,3.13
2023-03-04T14:51:30.181Z,3.40
2023-03-04T14:54:02.897Z,2.77
2023-03-04T14:56:38.895Z,3.73
2023-03-04T14:59:14.126Z,3.70
2023-03-04T15:01:47.262Z,3.20
2023-03-04T15:04:20.812Z,3.00
2023-03-04T15:06:54.308Z,2.93
2023-03-04T15:09:28.137Z,3.27
2023-03-04T15:12:07.672Z,3.27
2023-03-04T15:14:50.078Z,3.00
2023-03-04T15:17:25.372Z,3.20
2023-03-04T15:20:02.185Z,3.53
2023-03-04T15:22:38.372Z,2.80
2023-03-04T15:25:15.144Z,2.77
2023-03-04T15:27:48.445Z,3.30
2023-03-04T15:30:23.922Z,3.37
2023-03-04T15:32:57.064Z,2.67
2023-03-04T15:35:31.771Z,3.43
2023-03-04T15:38:06.489Z,3.03
2023-03-04T15:40:43.232Z,3.10
2023-03-04T15:43:17.272Z,3.53
2023-03-04T15:45:52.457Z,3.53
2023-03-04T15:48:25.266Z,3.23
2023-03-04T15:50:58.963Z,3.97
2023-03-04T15:53:34.535Z,3.83
2023-03-04T15:56:10.255Z,1.73
2023-03-04T15:58:44.539Z,4.43
2023-03-04T16:01:20.901Z,3.57
2023-03-04T16:03:54.014Z,3.93
2023-03-04T16:06:28.674Z,3.93
2023-03-04T16:09:01.836Z,2.90
2023-03-04T16:11:42.253Z,3.77
2023-03-04T16:14:15.578Z,3.57
2023-03-04T16:16:53.585Z,3.20
2023-03-04T16:19:26.334Z,3.40
2023-03-04T16:21:59.284Z,3.97
2023-03-04T16:24:36.374Z,3.67
2023-03-04T16:27:11.225Z,3.17
2023-03-04T16:29:43.970Z,1.73
2023-03-04T16:32:18.108Z,3.13
2023-03-04T16:34:50.899Z,3.03
2023-03-04T16:37:23.953Z,2.93
2023-03-04T16:39:56.800Z,3.67
2023-03-04T16:42:29.499Z,3.07
2023-03-04T16:45:02.313Z,3.30
2023-03-04T16:47:36.453Z,1.80
2023-03-04T16:50:10.379Z,2.80
2023-03-04T16:52:48.467Z,3.57
2023-03-04T16:55:22.714Z,2.93
2023-03-04T16:57:57.673Z,2.90
2023-03-04T17:00:32.164Z,2.90
2023-03-04T17:03:06.473Z,2.83
2023-03-04T17:05:39.499Z,2.70
2023-03-04T17:08:17.724Z,3.27
2023-03-04T17:10:50.513Z,2.93
2023-03-04T17:13:23.269Z,3.23
2023-03-04T17:15:56.036Z,2.80
2023-03-04T17:18:32.860Z,2.83
2023-03-04T17:21:06.940Z,2.10
2023-03-04T17:23:39.810Z,3.13
2023-03-04T17:26:13.265Z,3.17
2023-03-04T17:28:45.969Z,3.10
2023-03-04T17:31:19.715Z,3.30
2023-03-04T17:33:53.759Z,3.43
2023-03-04T17:36:26.548Z,3.27
2023-03-04T17:39:00.935Z,3.30
2023-03-04T17:41:36.230Z,2.83
2023-03-04T17:44:19.136Z,3.30
2023-03-04T17:46:52.255Z,3.93
2023-03-04T17:49:26.521Z,4.93
2023-03-04T17:51:59.249Z,4.27
2023-03-04T17:54:32.384Z,3.60
2023-03-04T17:57:09.932Z,3.67
2023-03-04T17:59:45.196Z,3.47
2023-03-04T18:02:18.246Z,3.53
2023-03-04T18:04:52.272Z,3.87
2023-03-04T18:07:25.085Z,3.30
2023-03-04T18:09:58.427Z,3.23
2023-03-04T18:12:31.209Z,3.73
2023-03-04T18:15:04.013Z,3.63
2023-03-04T18:17:37.002Z,2.87
2023-03-04T18:20:12.530Z,3.30
2023-03-04T18:22:48.379Z,3.93
2023-03-04T18:25:21.425Z,3.27
2023-03-04T18:27:54.123Z,3.27
2023-03-04T18:30:27.779Z,3.37
2023-03-04T18:33:02.110Z,3.23
2023-03-04T18:35:36.226Z,3.33
2023-03-04T18:38:08.932Z,2.80
2023-03-04T18:40:42.677Z,2.93
2023-03-04T18:43:15.450Z,3.60
2023-03-04T18:45:51.533Z,3.67
2023-03-04T18:48:24.311Z,3.77
2023-03-04T18:50:58.924Z,3.67
2023-03-04T18:53:32.260Z,3.90
2023-03-04T18:56:07.365Z,3.70
2023-03-04T18:58:41.119Z,3.70
2023-03-04T19:01:17.726Z,3.83
2023-03-04T19:03:51.054Z,2.97
2023-03-04T19:06:27.460Z,2.97
2023-03-04T19:09:00.402Z,3.57
2023-03-04T19:11:33.192Z,3.73
2023-03-04T19:14:08.061Z,3.37
2023-03-04T19:16:41.018Z,4.07
2023-03-04T19:19:15.108Z,3.43
2023-03-04T19:21:49.293Z,2.73
2023-03-04T19:24:22.028Z,4.43
2023-03-04T19:26:56.887Z,4.17
2023-03-04T19:29:30.011Z,3.50
2023-03-04T19:32:03.612Z,3.20
2023-03-04T19:34:36.492Z,3.80
2023-03-04T19:37:10.723Z,3.83
2023-03-04T19:39:44.028Z,3.13
2023-03-04T19:42:17.071Z,3.97
2023-03-04T19:44:49.869Z,3.90
2023-03-04T19:47:24.151Z,3.50
2023-03-04T19:49:57.363Z,2.90
2023-03-04T19:52:31.494Z,3.40
2023-03-04T19:55:04.992Z,3.77
2023-03-04T19:57:37.718Z,4.10
2023-03-04T20:00:11.220Z,4.03
2023-03-04T20:02:45.582Z,2.67
2023-03-04T20:05:18.474Z,3.73
2023-03-04T20:07:52.634Z,3.17
2023-03-04T20:10:25.367Z,3.20
2023-03-04T20:12:58.185Z,3.93
2023-03-04T20:15:35.070Z,3.60
2023-03-04T20:18:07.807Z,4.20
2023-03-04T20:20:40.787Z,4.43
2023-03-04T20:23:20.298Z,4.00
2023-03-04T20:25:55.718Z,3.77
2023-03-04T20:28:28.741Z,3.83
2023-03-04T20:31:11.495Z,4.07
2023-03-04T20:33:44.906Z,4.03
2023-03-04T20:36:19.909Z,3.77
2023-03-04T20:39:02.062Z,3.33
2023-03-04T20:41:39.907Z,3.27
2023-03-04T20:44:12.723Z,3.20
2023-03-04T20:46:46.337Z,3.30
2023-03-04T20:49:22.148Z,3.07
2023-03-04T20:52:03.099Z,3.13
2023-03-04T20:54:38.488Z,2.47
2023-03-04T20:57:11.723Z,2.80
2023-03-04T20:59:44.268Z,3.33
2023-03-04T21:02:19.692Z,2.37
2023-03-04T21:04:52.569Z,1.70
2023-03-04T21:07:26.261Z,2.10
2023-03-04T21:10:00.331Z,2.07
2023-03-04T21:12:32.913Z,2.40
2023-03-04T21:15:06.347Z,2.27
2023-03-04T21:17:39.210Z,3.00
2023-03-04T21:20:12.984Z,2.43
2023-03-04T21:22:47.097Z,2.27
2023-03-04T21:25:23.049Z,2.70
2023-03-04T21:27:55.765Z,2.43
2023-03-04T21:30:28.531Z,2.90
2023-03-04T21:33:03.767Z,2.30
2023-03-04T21:35:37.186Z,2.67
2023-03-04T21:38:09.921Z,2.80
2023-03-04T21:40:44.062Z,3.30
2023-03-04T21:43:22.371Z,2.50
2023-03-04T21:45:56.234Z,2.80
2023-03-04T21:48:29.107Z,2.90
2023-03-04T21:51:04.343Z,2.40
2023-03-04T21:53:37.194Z,3.23
2023-03-04T21:56:16.618Z,2.50
2023-03-04T21:58:51.094Z,2.70
2023-03-04T22:01:23.870Z,3.17
2023-03-04T22:03:56.691Z,2.90
2023-03-04T22:06:29.463Z,3.30
2023-03-04T22:09:03.033Z,3.87
2023-03-04T22:11:37.184Z,3.70
2023-03-04T22:14:11.601Z,3.13
2023-03-04T22:16:59.499Z,4.77
2023-03-04T22:19:40.397Z,3.53
2023-03-04T22:22:13.138Z,4.40
2023-03-04T22:24:45.851Z,3.80
2023-03-04T22:27:21.484Z,3.47
2023-03-04T22:29:54.210Z,3.73
2023-03-04T22:32:26.962Z,3.50
2023-03-04T22:34:59.963Z,3.77
2023-03-04T22:37:35.852Z,3.67
2023-03-04T22:40:11.449Z,3.80
2023-03-04T22:42:46.623Z,3.70
2023-03-04T22:45:19.844Z,3.30
2023-03-04T22:47:55.077Z,3.23
2023-03-04T22:50:28.458Z,2.77
2023-03-04T22:53:01.177Z,3.07
2023-03-04T22:55:34.162Z,2.83
2023-03-04T22:58:08.300Z,4.00
2023-03-04T23:00:41.190Z,3.20
2023-03-04T23:03:14.200Z,3.70
2023-03-04T23:05:49.227Z,3.43
2023-03-04T23:08:22.005Z,4.07
2023-03-04T23:10:54.853Z,3.67
2023-03-04T23:13:29.291Z,4.30
2023-03-04T23:16:03.036Z,3.70
2023-03-04T23:18:38.224Z,3.63
2023-03-04T23:21:12.791Z,3.60
2023-03-04T23:23:45.959Z,4.17
2023-03-04T23:26:19.993Z,3.80
2023-03-04T23:28:55.601Z,3.97
2023-03-04T23:31:32.027Z,3.80
2023-03-04T23:34:05.218Z,3.53
2023-03-04T23:36:38.446Z,3.90
2023-03-04T23:39:15.384Z,3.70
2023-03-04T23:41:49.540Z,3.30
2023-03-04T23:44:23.628Z,4.40
2023-03-04T23:47:00.030Z,3.97
2023-03-04T23:49:35.798Z,4.00
2023-03-04T23:52:08.769Z,3.63
2023-03-04T23:54:41.549Z,3.97
2023-03-04T23:57:14.350Z,3.67
2023-03-04T23:59:48.616Z,4.57
